sensor_id;sensor_type;location;lat;lon;timestamp;pressure;altitude;pressure_sealevel;temperature;humidity
13952;BME280;39535;52.192;9.886;2023-02-10T00:01:35;102492.63;;;2.52;79.66
13952;BME280;39535;52.192;9.886;2023-02-10T00:04:02;102484.53;;;2.26;80.62
13952;BME280;39535;52.192;9.886;2023-02-10T00:06:29;102463.38;;;2.33;81.24
13952;BME280;39535;52.192;9.886;2023-02-10T00:08:58;102459.03;;;2.32;80.92
13952;BME280;39535;52.192;9.886;2023-02-10T00:11:26;102451.88;;;2.45;81.52
13952;BME280;39535;52.192;9.886;2023-02-10T00:14:07;102454.06;;;2.55;80.19
13952;BME280;39535;52.192;9.886;2023-02-10T00:16:33;102454.94;;;2.55;80.72
13952;BME280;39535;52.192;9.886;2023-02-10T00:19:01;102464.00;;;2.65;81.00
13952;BME280;39535;52.192;9.886;2023-02-10T00:21:28;102469.47;;;2.53;80.72
13952;BME280;39535;52.192;9.886;2023-02-10T00:23:55;102459.59;;;2.63;80.63
13952;BME280;39535;52.192;9.886;2023-02-10T00:26:21;102459.50;;;2.61;80.95
13952;BME280;39535;52.192;9.886;2023-02-10T00:28:48;102453.84;;;2.68;81.41
13952;BME280;39535;52.192;9.886;2023-02-10T00:31:15;102454.78;;;2.70;81.14
13952;BME280;39535;52.192;9.886;2023-02-10T00:33:44;102449.97;;;2.78;81.09
13952;BME280;39535;52.192;9.886;2023-02-10T00:36:13;102458.78;;;2.83;81.00
13952;BME280;39535;52.192;9.886;2023-02-10T00:38:41;102490.66;;;2.84;80.77
13952;BME280;39535;52.192;9.886;2023-02-10T00:41:09;102490.22;;;2.74;80.47
13952;BME280;39535;52.192;9.886;2023-02-10T00:43:36;102494.69;;;2.78;81.12
13952;BME280;39535;52.192;9.886;2023-02-10T00:46:04;102492.63;;;2.71;81.29
13952;BME280;39535;52.192;9.886;2023-02-10T00:48:31;102485.66;;;2.69;81.88
13952;BME280;39535;52.192;9.886;2023-02-10T00:50:58;102466.41;;;2.43;82.30
13952;BME280;39535;52.192;9.886;2023-02-10T00:53:25;102450.06;;;2.42;82.39
13952;BME280;39535;52.192;9.886;2023-02-10T00:55:52;102438.69;;;2.56;82.24
13952;BME280;39535;52.192;9.886;2023-02-10T00:58:19;102452.88;;;2.66;82.05
13952;BME280;39535;52.192;9.886;2023-02-10T01:00:45;102448.56;;;2.47;82.44
13952;BME280;39535;52.192;9.886;2023-02-10T01:03:11;102450.06;;;2.42;82.59
13952;BME280;39535;52.192;9.886;2023-02-10T01:05:38;102438.25;;;2.47;83.36
13952;BME280;39535;52.192;9.886;2023-02-10T01:08:05;102439.94;;;2.47;82.80
13952;BME280;39535;52.192;9.886;2023-02-10T01:10:33;102438.84;;;2.24;83.81
13952;BME280;39535;52.192;9.886;2023-02-10T01:13:00;102419.34;;;2.29;84.62
13952;BME280;39535;52.192;9.886;2023-02-10T01:15:26;102396.25;;;2.30;84.62
13952;BME280;39535;52.192;9.886;2023-02-10T01:17:53;102388.03;;;2.39;84.28
13952;BME280;39535;52.192;9.886;2023-02-10T01:20:19;102395.00;;;2.22;84.56
13952;BME280;39535;52.192;9.886;2023-02-10T01:22:46;102381.19;;;2.20;85.12
13952;BME280;39535;52.192;9.886;2023-02-10T01:25:12;102381.47;;;2.26;85.23
13952;BME280;39535;52.192;9.886;2023-02-10T01:27:40;102384.75;;;2.24;85.62
13952;BME280;39535;52.192;9.886;2023-02-10T01:30:07;102372.78;;;2.24;86.23
13952;BME280;39535;52.192;9.886;2023-02-10T01:32:35;102360.75;;;2.25;86.02
13952;BME280;39535;52.192;9.886;2023-02-10T01:35:02;102352.44;;;2.30;86.08
13952;BME280;39535;52.192;9.886;2023-02-10T01:37:29;102367.19;;;2.15;87.00
13952;BME280;39535;52.192;9.886;2023-02-10T01:39:55;102347.09;;;2.08;87.40
13952;BME280;39535;52.192;9.886;2023-02-10T01:42:22;102332.00;;;2.15;87.55
13952;BME280;39535;52.192;9.886;2023-02-10T01:45:15;102324.00;;;1.91;89.16
13952;BME280;39535;52.192;9.886;2023-02-10T01:47:42;102295.88;;;1.96;88.82
13952;BME280;39535;52.192;9.886;2023-02-10T01:50:13;102286.09;;;2.07;88.83
13952;BME280;39535;52.192;9.886;2023-02-10T01:52:40;102282.69;;;2.08;88.99
13952;BME280;39535;52.192;9.886;2023-02-10T01:55:09;102290.09;;;2.19;88.87
13952;BME280;39535;52.192;9.886;2023-02-10T01:57:37;102294.66;;;2.25;88.44
13952;BME280;39535;52.192;9.886;2023-02-10T02:00:06;102299.25;;;2.13;88.94
13952;BME280;39535;52.192;9.886;2023-02-10T02:02:34;102299.19;;;2.11;89.30
13952;BME280;39535;52.192;9.886;2023-02-10T02:05:04;102297.44;;;2.10;88.71
13952;BME280;39535;52.192;9.886;2023-02-10T02:07:34;102277.16;;;1.98;90.16
13952;BME280;39535;52.192;9.886;2023-02-10T02:10:04;102266.16;;;2.03;90.44
13952;BME280;39535;52.192;9.886;2023-02-10T02:12:39;102253.84;;;2.15;90.26
13952;BME280;39535;52.192;9.886;2023-02-10T02:15:14;102263.59;;;2.03;90.56
13952;BME280;39535;52.192;9.886;2023-02-10T02:17:52;102247.91;;;1.98;90.94
13952;BME280;39535;52.192;9.886;2023-02-10T02:20:38;102247.91;;;1.98;91.14
13952;BME280;39535;52.192;9.886;2023-02-10T02:23:20;102249.97;;;2.05;91.49
13952;BME280;39535;52.192;9.886;2023-02-10T02:29:12;102250.28;;;1.93;91.19
13952;BME280;39535;52.192;9.886;2023-02-10T02:31:56;102238.47;;;1.79;92.46
13952;BME280;39535;52.192;9.886;2023-02-10T02:34:29;102225.00;;;1.85;93.29
13952;BME280;39535;52.192;9.886;2023-02-10T02:37:01;102217.16;;;2.01;92.38
13952;BME280;39535;52.192;9.886;2023-02-10T02:39:28;102217.63;;;2.12;92.19
13952;BME280;39535;52.192;9.886;2023-02-10T02:42:19;102227.56;;;2.04;92.59
13952;BME280;39535;52.192;9.886;2023-02-10T02:44:48;102240.19;;;2.17;91.73
13952;BME280;39535;52.192;9.886;2023-02-10T02:47:29;102249.81;;;2.22;91.51
13952;BME280;39535;52.192;9.886;2023-02-10T02:50:06;102263.03;;;2.10;91.37
13952;BME280;39535;52.192;9.886;2023-02-10T02:52:46;102262.50;;;1.97;91.63
13952;BME280;39535;52.192;9.886;2023-02-10T02:55:22;102258.72;;;2.09;92.13
13952;BME280;39535;52.192;9.886;2023-02-10T02:57:54;102257.72;;;2.25;91.13
13952;BME280;39535;52.192;9.886;2023-02-10T03:00:26;102268.44;;;2.34;90.67
13952;BME280;39535;52.192;9.886;2023-02-10T03:02:55;102291.22;;;2.44;89.78
13952;BME280;39535;52.192;9.886;2023-02-10T03:05:31;102311.22;;;2.50;89.14
13952;BME280;39535;52.192;9.886;2023-02-10T03:07:58;102327.16;;;2.41;88.81
13952;BME280;39535;52.192;9.886;2023-02-10T03:10:25;102341.94;;;2.45;88.75
13952;BME280;39535;52.192;9.886;2023-02-10T03:12:51;102367.31;;;2.36;88.68
13952;BME280;39535;52.192;9.886;2023-02-10T03:15:18;102365.31;;;2.30;88.86
13952;BME280;39535;52.192;9.886;2023-02-10T03:17:44;102357.78;;;2.35;88.28
13952;BME280;39535;52.192;9.886;2023-02-10T03:20:12;102367.59;;;2.42;87.94
13952;BME280;39535;52.192;9.886;2023-02-10T03:22:40;102383.75;;;2.20;88.07
13952;BME280;39535;52.192;9.886;2023-02-10T03:25:07;102369.88;;;2.18;88.59
13952;BME280;39535;52.192;9.886;2023-02-10T03:27:33;102364.28;;;2.27;88.75
13952;BME280;39535;52.192;9.886;2023-02-10T03:30:00;102374.69;;;2.28;88.13
13952;BME280;39535;52.192;9.886;2023-02-10T03:32:26;102389.53;;;2.34;87.38
13952;BME280;39535;52.192;9.886;2023-02-10T03:34:53;102400.81;;;2.36;87.18
13952;BME280;39535;52.192;9.886;2023-02-10T03:37:21;102414.41;;;2.33;86.41
13952;BME280;39535;52.192;9.886;2023-02-10T03:39:47;102428.19;;;2.34;86.46
13952;BME280;39535;52.192;9.886;2023-02-10T03:42:14;102440.25;;;2.35;86.19
13952;BME280;39535;52.192;9.886;2023-02-10T03:44:40;102444.75;;;2.39;86.66
13952;BME280;39535;52.192;9.886;2023-02-10T03:47:06;102450.72;;;2.38;86.38
13952;BME280;39535;52.192;9.886;2023-02-10T03:49:33;102438.28;;;2.29;87.17
13952;BME280;39535;52.192;9.886;2023-02-10T03:51:59;102437.59;;;2.33;87.08
13952;BME280;39535;52.192;9.886;2023-02-10T03:54:27;102437.88;;;2.39;86.75
13952;BME280;39535;52.192;9.886;2023-02-10T03:56:54;102445.41;;;2.35;86.37
13952;BME280;39535;52.192;9.886;2023-02-10T03:59:23;102456.69;;;2.37;87.07
13952;BME280;39535;52.192;9.886;2023-02-10T04:01:50;102460.22;;;2.39;86.18
13952;BME280;39535;52.192;9.886;2023-02-10T04:04:17;102466.31;;;2.41;86.21
13952;BME280;39535;52.192;9.886;2023-02-10T04:06:44;102468.09;;;2.42;86.15
13952;BME280;39535;52.192;9.886;2023-02-10T04:09:10;102460.56;;;2.47;86.57
13952;BME280;39535;52.192;9.886;2023-02-10T04:11:38;102463.16;;;2.47;86.79
13952;BME280;39535;52.192;9.886;2023-02-10T04:14:04;102460.84;;;2.53;86.97
13952;BME280;39535;52.192;9.886;2023-02-10T04:16:31;102457.25;;;2.49;86.81
13952;BME280;39535;52.192;9.886;2023-02-10T04:18:59;102459.09;;;2.52;86.45
13952;BME280;39535;52.192;9.886;2023-02-10T04:21:25;102462.63;;;2.54;86.96
13952;BME280;39535;52.192;9.886;2023-02-10T04:23:52;102461.38;;;2.46;87.00
13952;BME280;39535;52.192;9.886;2023-02-10T04:26:18;102447.88;;;2.51;87.51
13952;BME280;39535;52.192;9.886;2023-02-10T04:28:46;102440.75;;;2.46;87.80
13952;BME280;39535;52.192;9.886;2023-02-10T04:31:13;102417.66;;;2.29;88.34
13952;BME280;39535;52.192;9.886;2023-02-10T04:33:39;102403.44;;;2.37;88.44
13952;BME280;39535;52.192;9.886;2023-02-10T04:36:06;102392.31;;;2.38;89.01
13952;BME280;39535;52.192;9.886;2023-02-10T04:38:33;102384.66;;;2.40;88.99
13952;BME280;39535;52.192;9.886;2023-02-10T04:40:59;102376.66;;;2.34;89.64
13952;BME280;39535;52.192;9.886;2023-02-10T04:43:28;102371.78;;;2.40;89.23
13952;BME280;39535;52.192;9.886;2023-02-10T04:45:55;102347.56;;;2.36;90.01
13952;BME280;39535;52.192;9.886;2023-02-10T04:48:22;102352.72;;;2.36;89.63
13952;BME280;39535;52.192;9.886;2023-02-10T04:50:48;102349.28;;;2.36;89.66
13952;BME280;39535;52.192;9.886;2023-02-10T04:53:15;102346.69;;;2.36;90.07
13952;BME280;39535;52.192;9.886;2023-02-10T04:55:42;102338.06;;;2.35;90.07
13952;BME280;39535;52.192;9.886;2023-02-10T04:58:08;102327.78;;;2.17;90.88
13952;BME280;39535;52.192;9.886;2023-02-10T05:00:34;102318.19;;;2.33;90.50
13952;BME280;39535;52.192;9.886;2023-02-10T05:03:02;102318.03;;;2.30;90.81
13952;BME280;39535;52.192;9.886;2023-02-10T05:05:29;102305.22;;;2.31;91.14
13952;BME280;39535;52.192;9.886;2023-02-10T05:07:55;102300.69;;;2.26;90.57
13952;BME280;39535;52.192;9.886;2023-02-10T05:10:22;102295.69;;;2.29;90.85
13952;BME280;39535;52.192;9.886;2023-02-10T05:12:48;102301.03;;;2.33;90.68
13952;BME280;39535;52.192;9.886;2023-02-10T05:15:15;102305.38;;;2.34;90.63
13952;BME280;39535;52.192;9.886;2023-02-10T05:17:41;102316.50;;;2.33;90.50
13952;BME280;39535;52.192;9.886;2023-02-10T05:20:10;102314.47;;;2.26;91.16
13952;BME280;39535;52.192;9.886;2023-02-10T05:22:37;102311.06;;;2.27;90.92
13952;BME280;39535;52.192;9.886;2023-02-10T05:25:04;102308.81;;;2.15;91.63
13952;BME280;39535;52.192;9.886;2023-02-10T05:27:30;102301.59;;;2.26;91.63
13952;BME280;39535;52.192;9.886;2023-02-10T05:29:57;102296.81;;;2.35;91.77
13952;BME280;39535;52.192;9.886;2023-02-10T05:32:23;102299.13;;;2.49;91.23
13952;BME280;39535;52.192;9.886;2023-02-10T05:34:50;102317.38;;;2.53;90.71
13952;BME280;39535;52.192;9.886;2023-02-10T05:37:18;102338.06;;;2.55;90.03
13952;BME280;39535;52.192;9.886;2023-02-10T05:39:44;102339.94;;;2.39;90.40
13952;BME280;39535;52.192;9.886;2023-02-10T05:42:11;102332.44;;;2.44;90.39
13952;BME280;39535;52.192;9.886;2023-02-10T05:44:37;102342.16;;;2.50;90.68
13952;BME280;39535;52.192;9.886;2023-02-10T05:47:04;102343.81;;;2.49;90.97
13952;BME280;39535;52.192;9.886;2023-02-10T05:49:30;102334.28;;;2.47;91.17
13952;BME280;39535;52.192;9.886;2023-02-10T05:51:58;102333.88;;;2.57;90.91
13952;BME280;39535;52.192;9.886;2023-02-10T05:54:25;102335.22;;;2.68;90.10
13952;BME280;39535;52.192;9.886;2023-02-10T05:56:52;102349.06;;;2.70;89.65
13952;BME280;39535;52.192;9.886;2023-02-10T05:59:18;102373.22;;;2.72;89.44
13952;BME280;39535;52.192;9.886;2023-02-10T06:01:45;102380.47;;;2.81;88.94
13952;BME280;39535;52.192;9.886;2023-02-10T06:04:11;102391.41;;;2.56;89.62
13952;BME280;39535;52.192;9.886;2023-02-10T06:06:37;102387.88;;;2.54;90.39
13952;BME280;39535;52.192;9.886;2023-02-10T06:09:04;102378.38;;;2.53;90.63
13952;BME280;39535;52.192;9.886;2023-02-10T06:11:32;102385.69;;;2.63;89.79
13952;BME280;39535;52.192;9.886;2023-02-10T06:13:59;102384.34;;;2.52;90.47
13952;BME280;39535;52.192;9.886;2023-02-10T06:16:25;102387.56;;;2.66;89.72
13952;BME280;39535;52.192;9.886;2023-02-10T06:18:52;102408.28;;;2.69;89.52
13952;BME280;39535;52.192;9.886;2023-02-10T06:21:18;102410.31;;;2.56;90.28
13952;BME280;39535;52.192;9.886;2023-02-10T06:23:45;102397.28;;;2.53;90.48
13952;BME280;39535;52.192;9.886;2023-02-10T06:26:12;102389.44;;;2.50;91.07
13952;BME280;39535;52.192;9.886;2023-02-10T06:28:40;102392.41;;;2.59;90.46
13952;BME280;39535;52.192;9.886;2023-02-10T06:31:06;102397.75;;;2.45;91.09
13952;BME280;39535;52.192;9.886;2023-02-10T06:33:33;102381.09;;;2.56;90.51
13952;BME280;39535;52.192;9.886;2023-02-10T06:36:00;102392.56;;;2.63;90.56
13952;BME280;39535;52.192;9.886;2023-02-10T06:38:29;102407.75;;;2.56;90.10
13952;BME280;39535;52.192;9.886;2023-02-10T06:40:55;102407.66;;;2.55;90.67
13952;BME280;39535;52.192;9.886;2023-02-10T06:43:21;102419.22;;;2.63;90.14
13952;BME280;39535;52.192;9.886;2023-02-10T06:45:49;102437.59;;;2.71;89.80
13952;BME280;39535;52.192;9.886;2023-02-10T06:48:15;102450.63;;;2.54;90.23
13952;BME280;39535;52.192;9.886;2023-02-10T06:50:42;102448.78;;;2.52;90.27
13952;BME280;39535;52.192;9.886;2023-02-10T06:53:08;102438.47;;;2.52;90.86
13952;BME280;39535;52.192;9.886;2023-02-10T06:55:35;102433.56;;;2.38;90.98
13952;BME280;39535;52.192;9.886;2023-02-10T06:58:02;102427.84;;;2.46;90.54
13952;BME280;39535;52.192;9.886;2023-02-10T07:00:29;102424.47;;;2.47;90.98
13952;BME280;39535;52.192;9.886;2023-02-10T07:02:58;102433.31;;;2.52;90.46
13952;BME280;39535;52.192;9.886;2023-02-10T07:05:25;102436.78;;;2.52;90.61
13952;BME280;39535;52.192;9.886;2023-02-10T07:07:53;102447.97;;;2.53;89.62
13952;BME280;39535;52.192;9.886;2023-02-10T07:10:20;102459.16;;;2.53;89.49
13952;BME280;39535;52.192;9.886;2023-02-10T07:12:46;102470.13;;;2.49;89.83
13952;BME280;39535;52.192;9.886;2023-02-10T07:15:13;102471.03;;;2.50;89.92
13952;BME280;39535;52.192;9.886;2023-02-10T07:17:40;102472.59;;;2.46;89.36
13952;BME280;39535;52.192;9.886;2023-02-10T07:20:09;102460.84;;;2.53;89.38
13952;BME280;39535;52.192;9.886;2023-02-10T07:22:35;102467.84;;;2.55;89.19
13952;BME280;39535;52.192;9.886;2023-02-10T07:25:02;102473.00;;;2.55;89.12
13952;BME280;39535;52.192;9.886;2023-02-10T07:27:29;102471.16;;;2.53;89.63
13952;BME280;39535;52.192;9.886;2023-02-10T07:29:55;102448.63;;;2.49;90.81
13952;BME280;39535;52.192;9.886;2023-02-10T07:32:21;102442.97;;;2.56;91.12
13952;BME280;39535;52.192;9.886;2023-02-10T07:34:48;102442.06;;;2.55;90.68
13952;BME280;39535;52.192;9.886;2023-02-10T07:37:16;102439.56;;;2.57;91.28
13952;BME280;39535;52.192;9.886;2023-02-10T07:39:42;102428.81;;;2.66;90.87
13952;BME280;39535;52.192;9.886;2023-02-10T07:42:08;102422.63;;;2.62;91.54
13952;BME280;39535;52.192;9.886;2023-02-10T07:44:35;102426.63;;;2.75;90.64
13952;BME280;39535;52.192;9.886;2023-02-10T07:47:01;102433.22;;;2.68;91.80
13952;BME280;39535;52.192;9.886;2023-02-10T07:49:28;102423.25;;;2.76;91.81
13952;BME280;39535;52.192;9.886;2023-02-10T07:51:54;102415.59;;;2.77;92.05
13952;BME280;39535;52.192;9.886;2023-02-10T07:54:22;102411.56;;;2.84;91.56
13952;BME280;39535;52.192;9.886;2023-02-10T07:56:48;102420.53;;;2.92;91.15
13952;BME280;39535;52.192;9.886;2023-02-10T07:59:15;102437.16;;;2.99;90.78
13952;BME280;39535;52.192;9.886;2023-02-10T08:01:41;102438.22;;;2.85;91.70
13952;BME280;39535;52.192;9.886;2023-02-10T08:04:08;102425.69;;;2.92;91.96
13952;BME280;39535;52.192;9.886;2023-02-10T08:06:34;102431.19;;;3.00;91.38
13952;BME280;39535;52.192;9.886;2023-02-10T08:09:01;102424.25;;;2.99;91.28
13952;BME280;39535;52.192;9.886;2023-02-10T08:11:29;102441.16;;;2.92;91.54
13952;BME280;39535;52.192;9.886;2023-02-10T08:13:55;102435.75;;;3.06;90.97
13952;BME280;39535;52.192;9.886;2023-02-10T08:16:22;102450.63;;;3.11;90.69
13952;BME280;39535;52.192;9.886;2023-02-10T08:18:48;102459.66;;;3.21;90.39
13952;BME280;39535;52.192;9.886;2023-02-10T08:21:15;102470.56;;;3.15;90.34
13952;BME280;39535;52.192;9.886;2023-02-10T08:23:41;102471.72;;;3.22;90.33
13952;BME280;39535;52.192;9.886;2023-02-10T08:26:10;102474.44;;;3.25;90.60
13952;BME280;39535;52.192;9.886;2023-02-10T08:28:39;102477.22;;;3.30;90.58
13952;BME280;39535;52.192;9.886;2023-02-10T08:31:07;102466.22;;;3.34;90.46
13952;BME280;39535;52.192;9.886;2023-02-10T08:33:35;102485.97;;;3.33;90.26
13952;BME280;39535;52.192;9.886;2023-02-10T08:36:03;102483.94;;;3.26;90.62
13952;BME280;39535;52.192;9.886;2023-02-10T08:38:30;102487.63;;;3.31;90.56
13952;BME280;39535;52.192;9.886;2023-02-10T08:40:58;102486.78;;;3.32;90.74
13952;BME280;39535;52.192;9.886;2023-02-10T08:43:25;102485.31;;;3.37;91.06
13952;BME280;39535;52.192;9.886;2023-02-10T08:45:54;102481.28;;;3.44;90.90
13952;BME280;39535;52.192;9.886;2023-02-10T08:48:21;102489.91;;;3.45;90.75
13952;BME280;39535;52.192;9.886;2023-02-10T08:50:48;102484.81;;;3.46;91.06
13952;BME280;39535;52.192;9.886;2023-02-10T08:53:15;102488.56;;;3.53;90.94
13952;BME280;39535;52.192;9.886;2023-02-10T08:55:41;102489.94;;;3.66;90.70
13952;BME280;39535;52.192;9.886;2023-02-10T08:58:08;102497.84;;;3.69;90.55
13952;BME280;39535;52.192;9.886;2023-02-10T09:00:34;102502.31;;;3.73;90.53
13952;BME280;39535;52.192;9.886;2023-02-10T09:03:02;102505.09;;;3.58;90.71
13952;BME280;39535;52.192;9.886;2023-02-10T09:05:29;102500.47;;;3.70;90.91
13952;BME280;39535;52.192;9.886;2023-02-10T09:07:55;102502.94;;;3.67;90.23
13952;BME280;39535;52.192;9.886;2023-02-10T09:10:21;102510.25;;;3.77;90.39
13952;BME280;39535;52.192;9.886;2023-02-10T09:12:48;102518.50;;;3.90;90.29
13952;BME280;39535;52.192;9.886;2023-02-10T09:15:14;102533.66;;;4.02;89.63
13952;BME280;39535;52.192;9.886;2023-02-10T09:17:41;102545.88;;;4.06;89.36
13952;BME280;39535;52.192;9.886;2023-02-10T09:20:09;102554.91;;;4.15;88.98
13952;BME280;39535;52.192;9.886;2023-02-10T09:22:36;102571.59;;;4.03;89.26
13952;BME280;39535;52.192;9.886;2023-02-10T09:25:03;102565.16;;;4.14;89.04
13952;BME280;39535;52.192;9.886;2023-02-10T09:27:29;102578.41;;;4.01;89.33
13952;BME280;39535;52.192;9.886;2023-02-10T09:29:56;102575.88;;;4.02;88.91
13952;BME280;39535;52.192;9.886;2023-02-10T09:32:22;102573.25;;;4.01;89.73
13952;BME280;39535;52.192;9.886;2023-02-10T09:34:49;102568.53;;;3.92;89.86
13952;BME280;39535;52.192;9.886;2023-02-10T09:37:16;102545.56;;;3.78;90.56
13952;BME280;39535;52.192;9.886;2023-02-10T09:39:43;102542.34;;;3.83;90.45
13952;BME280;39535;52.192;9.886;2023-02-10T09:42:16;102547.34;;;3.80;90.58
13952;BME280;39535;52.192;9.886;2023-02-10T09:44:50;102532.00;;;3.83;91.31
13952;BME280;39535;52.192;9.886;2023-02-10T09:47:36;102525.50;;;3.92;90.86
13952;BME280;39535;52.192;9.886;2023-02-10T09:50:22;102540.19;;;3.93;90.43
13952;BME280;39535;52.192;9.886;2023-02-10T09:53:02;102544.28;;;3.88;90.47
13952;BME280;39535;52.192;9.886;2023-02-10T09:55:33;102560.34;;;4.02;89.86
13952;BME280;39535;52.192;9.886;2023-02-10T09:58:06;102565.16;;;4.14;89.42
13952;BME280;39535;52.192;9.886;2023-02-10T10:00:39;102574.25;;;4.25;89.10
13952;BME280;39535;52.192;9.886;2023-02-10T10:03:10;102583.41;;;4.38;89.19
13952;BME280;39535;52.192;9.886;2023-02-10T10:05:45;102598.34;;;4.45;88.54
13952;BME280;39535;52.192;9.886;2023-02-10T10:08:22;102623.41;;;4.46;87.70
13952;BME280;39535;52.192;9.886;2023-02-10T10:10:51;102614.63;;;4.43;88.29
13952;BME280;39535;52.192;9.886;2023-02-10T10:13:21;102627.19;;;4.54;88.03
13952;BME280;39535;52.192;9.886;2023-02-10T10:15:57;102620.50;;;4.38;88.23
13952;BME280;39535;52.192;9.886;2023-02-10T10:18:32;102623.06;;;4.38;87.89
13952;BME280;39535;52.192;9.886;2023-02-10T10:21:08;102637.78;;;4.20;88.25
13952;BME280;39535;52.192;9.886;2023-02-10T10:23:47;102618.44;;;4.10;88.74
13952;BME280;39535;52.192;9.886;2023-02-10T10:26:32;102611.00;;;4.18;88.62
13952;BME280;39535;52.192;9.886;2023-02-10T10:29:19;102602.53;;;4.22;88.79
13952;BME280;39535;52.192;9.886;2023-02-10T10:31:48;102595.63;;;4.21;88.95
13952;BME280;39535;52.192;9.886;2023-02-10T10:34:22;102603.22;;;4.18;88.77
13952;BME280;39535;52.192;9.886;2023-02-10T10:36:53;102590.75;;;4.08;88.94
13952;BME280;39535;52.192;9.886;2023-02-10T10:39:28;102588.81;;;4.23;88.51
13952;BME280;39535;52.192;9.886;2023-02-10T10:42:01;102587.84;;;4.00;89.53
13952;BME280;39535;52.192;9.886;2023-02-10T10:44:30;102575.28;;;3.88;89.95
13952;BME280;39535;52.192;9.886;2023-02-10T10:47:04;102560.00;;;3.73;90.67
13952;BME280;39535;52.192;9.886;2023-02-10T10:49:34;102542.44;;;3.86;90.64
13952;BME280;39535;52.192;9.886;2023-02-10T10:52:00;102523.22;;;3.79;90.97
13952;BME280;39535;52.192;9.886;2023-02-10T10:54:29;102519.09;;;3.83;90.98
13952;BME280;39535;52.192;9.886;2023-02-10T10:57:00;102509.63;;;3.83;90.49
13952;BME280;39535;52.192;9.886;2023-02-10T10:59:31;102508.88;;;4.07;90.58
13952;BME280;39535;52.192;9.886;2023-02-10T11:02:10;102511.72;;;4.13;90.05
13952;BME280;39535;52.192;9.886;2023-02-10T11:04:37;102519.09;;;4.25;89.09
13952;BME280;39535;52.192;9.886;2023-02-10T11:07:09;102539.00;;;4.27;89.41
13952;BME280;39535;52.192;9.886;2023-02-10T11:09:40;102549.97;;;4.43;88.77
13952;BME280;39535;52.192;9.886;2023-02-10T11:12:15;102557.41;;;4.56;88.30
13952;BME280;39535;52.192;9.886;2023-02-10T11:14:44;102575.38;;;4.74;87.29
13952;BME280;39535;52.192;9.886;2023-02-10T11:17:24;102612.00;;;4.85;86.57
13952;BME280;39535;52.192;9.886;2023-02-10T11:19:57;102632.16;;;4.93;85.95
13952;BME280;39535;52.192;9.886;2023-02-10T11:22:24;102658.56;;;4.85;84.59
13952;BME280;39535;52.192;9.886;2023-02-10T11:24:53;102680.50;;;4.72;85.04
13952;BME280;39535;52.192;9.886;2023-02-10T11:27:21;102676.63;;;4.83;85.53
13952;BME280;39535;52.192;9.886;2023-02-10T11:29:49;102669.19;;;4.70;85.57
13952;BME280;39535;52.192;9.886;2023-02-10T11:32:18;102667.22;;;4.85;85.78
13952;BME280;39535;52.192;9.886;2023-02-10T11:34:46;102693.22;;;4.88;85.22
13952;BME280;39535;52.192;9.886;2023-02-10T11:37:20;102702.56;;;4.85;84.66
13952;BME280;39535;52.192;9.886;2023-02-10T11:39:47;102703.59;;;4.88;84.60
13952;BME280;39535;52.192;9.886;2023-02-10T11:42:18;102710.72;;;4.94;84.06
13952;BME280;39535;52.192;9.886;2023-02-10T11:44:58;102704.78;;;5.17;83.83
13952;BME280;39535;52.192;9.886;2023-02-10T11:47:26;102722.81;;;4.95;83.67
13952;BME280;39535;52.192;9.886;2023-02-10T11:49:53;102706.38;;;4.72;84.65
13952;BME280;39535;52.192;9.886;2023-02-10T11:52:23;102685.00;;;4.98;84.71
13952;BME280;39535;52.192;9.886;2023-02-10T11:54:51;102684.56;;;5.09;84.75
13952;BME280;39535;52.192;9.886;2023-02-10T11:57:37;102695.34;;;5.20;83.51
13952;BME280;39535;52.192;9.886;2023-02-10T12:00:30;102702.34;;;5.22;83.07
13952;BME280;39535;52.192;9.886;2023-02-10T12:03:28;102721.91;;;5.36;82.60
13952;BME280;39535;52.192;9.886;2023-02-10T12:06:03;102732.63;;;5.46;82.34
13952;BME280;39535;52.192;9.886;2023-02-10T12:08:38;102749.09;;;5.70;82.04
13952;BME280;39535;52.192;9.886;2023-02-10T12:11:11;102770.63;;;5.68;81.21
13952;BME280;39535;52.192;9.886;2023-02-10T12:13:48;102786.69;;;5.82;80.44
13952;BME280;39535;52.192;9.886;2023-02-10T12:16:22;102809.38;;;5.87;80.62
13952;BME280;39535;52.192;9.886;2023-02-10T12:18:58;102830.91;;;6.07;79.68
13952;BME280;39535;52.192;9.886;2023-02-10T12:21:49;102869.34;;;5.95;78.24
13952;BME280;39535;52.192;9.886;2023-02-10T12:24:32;102880.00;;;6.25;77.28
13952;BME280;39535;52.192;9.886;2023-02-10T12:27:09;102907.78;;;6.50;77.61
13952;BME280;39535;52.192;9.886;2023-02-10T12:29:49;102929.59;;;6.80;76.18
13952;BME280;39535;52.192;9.886;2023-02-10T12:32:27;102969.09;;;6.71;75.59
13952;BME280;39535;52.192;9.886;2023-02-10T12:35:07;102985.75;;;7.24;74.34
13952;BME280;39535;52.192;9.886;2023-02-10T12:37:42;103035.03;;;7.45;73.08
13952;BME280;39535;52.192;9.886;2023-02-10T12:43:13;103129.69;;;7.76;68.72
13952;BME280;39535;52.192;9.886;2023-02-10T12:45:52;103168.41;;;7.92;70.07
13952;BME280;39535;52.192;9.886;2023-02-10T12:48:27;103196.63;;;8.30;67.97
13952;BME280;39535;52.192;9.886;2023-02-10T12:51:08;103224.09;;;8.46;67.96
13952;BME280;39535;52.192;9.886;2023-02-10T12:53:41;103269.19;;;8.22;66.75
13952;BME280;39535;52.192;9.886;2023-02-10T12:56:12;103294.06;;;7.69;67.72
13952;BME280;39535;52.192;9.886;2023-02-10T12:58:44;103279.94;;;7.40;70.36
13952;BME280;39535;52.192;9.886;2023-02-10T13:01:15;103222.38;;;7.51;70.36
13952;BME280;39535;52.192;9.886;2023-02-10T13:03:46;103196.16;;;7.45;70.66
13952;BME280;39535;52.192;9.886;2023-02-10T13:06:20;103184.09;;;7.47;70.25
13952;BME280;39535;52.192;9.886;2023-02-10T13:08:52;103178.19;;;6.85;70.96
13952;BME280;39535;52.192;9.886;2023-02-10T13:11:26;103123.72;;;7.09;72.74
13952;BME280;39535;52.192;9.886;2023-02-10T13:13:57;103101.16;;;7.31;71.99
13952;BME280;39535;52.192;9.886;2023-02-10T13:16:30;103104.97;;;6.94;71.25
13952;BME280;39535;52.192;9.886;2023-02-10T13:19:02;103083.00;;;7.08;72.34